Aviation Digital Data Service (ADDS)

Output produced by METARs form (0209 UTC 22 April 2019)
found at http://www.aviationweather.gov/metar/data/
 
METAR text: LEAB 220200Z 32008KT 8000 RA FEW005 OVC015 08/08 Q1005 NOSIG
Conditions at: LEAB (ALBACETE (CIV/MI, ES) observed 0200 UTC 22 April 2019
Temperature: 8.0°C (46°F)
Dewpoint: 8.0°C (46°F) [RH = 100%]
Pressure (altimeter): 29.68 inches Hg (1005.0 mb)
Winds: from the NW (320 degrees) at 9 MPH (8 knots; 4.1 m/s)
Visibility: 5 miles ( 8 km)
Ceiling: 1500 feet AGL
Clouds: few clouds at 500 feet AGL
overcast cloud deck at 1500 feet AGL
Weather: RA  (moderate rain)

METAR text: LEAB 220100Z 34008KT 6000 RA FEW005 OVC015 08/08 Q1006 NOSIG
Conditions at: LEAB (ALBACETE (CIV/MI, ES) observed 0100 UTC 22 April 2019
Temperature: 8.0°C (46°F)
Dewpoint: 8.0°C (46°F) [RH = 100%]
Pressure (altimeter): 29.70 inches Hg (1006.0 mb)
Winds: from the NNW (340 degrees) at 9 MPH (8 knots; 4.1 m/s)
Visibility: 4 miles ( 6 km)
Ceiling: 1500 feet AGL
Clouds: few clouds at 500 feet AGL
overcast cloud deck at 1500 feet AGL
Weather: RA  (moderate rain)

METAR text: LEAB 220000Z 32007KT 6000 RA SCT005 OVC020 08/08 Q1007 TEMPO BKN012
Conditions at: LEAB (ALBACETE (CIV/MI, ES) observed 0000 UTC 22 April 2019
Temperature: 8.0°C (46°F)
Dewpoint: 8.0°C (46°F) [RH = 100%]
Pressure (altimeter): 29.73 inches Hg (1007.0 mb)
Winds: from the NW (320 degrees) at 8 MPH (7 knots; 3.6 m/s)
Visibility: 4 miles ( 6 km)
Ceiling: 2000 feet AGL
Clouds: scattered clouds at 500 feet AGL
overcast cloud deck at 2000 feet AGL
Weather: RA  (moderate rain)

METAR text: LEAB 212300Z VRB02KT 6000 RA BKN020 OVC035 08/08 Q1007 TEMPO BKN012
Conditions at: LEAB (ALBACETE (CIV/MI, ES) observed 2300 UTC 21 April 2019
Temperature: 8.0°C (46°F)
Dewpoint: 8.0°C (46°F) [RH = 100%]
Pressure (altimeter): 29.73 inches Hg (1007.0 mb)
Winds: variable direction winds at 2 MPH (2 knots; 1.0 m/s)
Visibility: 4 miles ( 6 km)
Ceiling: 2000 feet AGL
Clouds: broken clouds at 2000 feet AGL
overcast cloud deck at 3500 feet AGL
Weather: RA  (moderate rain)

METAR text: LEAB 212200Z 35006KT 5000 RA BR BKN020 OVC045 08/08 Q1008 TEMPO BKN012
Conditions at: LEAB (ALBACETE (CIV/MI, ES) observed 2200 UTC 21 April 2019
Temperature: 8.0°C (46°F)
Dewpoint: 8.0°C (46°F) [RH = 100%]
Pressure (altimeter): 29.76 inches Hg (1008.0 mb)
Winds: from the N (350 degrees) at 7 MPH (6 knots; 3.1 m/s)
Visibility: 3 miles ( 5 km)
Ceiling: 2000 feet AGL
Clouds: broken clouds at 2000 feet AGL
overcast cloud deck at 4500 feet AGL
Weather: RA BR  (moderate rain, mist)

METAR text: LEAB 212100Z 32006KT 4000 RA BR SCT009 BKN025 OVC045 08/08 Q1008 TEMPO BKN009
Conditions at: LEAB (ALBACETE (CIV/MI, ES) observed 2100 UTC 21 April 2019
Temperature: 8.0°C (46°F)
Dewpoint: 8.0°C (46°F) [RH = 100%]
Pressure (altimeter): 29.76 inches Hg (1008.0 mb)
Winds: from the NW (320 degrees) at 7 MPH (6 knots; 3.1 m/s)
Visibility: 2.49 miles (4.01 km)
Ceiling: 2500 feet AGL
Clouds: scattered clouds at 900 feet AGL
broken clouds at 2500 feet AGL
overcast cloud deck at 4500 feet AGL
Weather: RA BR  (moderate rain, mist)

METAR text: LEAB 212000Z 33004KT 4000 RA BR BKN009 OVC045 08/08 Q1008 NOSIG
Conditions at: LEAB (ALBACETE (CIV/MI, ES) observed 2000 UTC 21 April 2019
Temperature: 8.0°C (46°F)
Dewpoint: 8.0°C (46°F) [RH = 100%]
Pressure (altimeter): 29.76 inches Hg (1008.0 mb)
Winds: from the NNW (330 degrees) at 5 MPH (4 knots; 2.1 m/s)
Visibility: 2.49 miles (4.01 km)
Ceiling: 900 feet AGL
Clouds: broken clouds at 900 feet AGL
overcast cloud deck at 4500 feet AGL
Weather: RA BR  (moderate rain, mist)

METAR text: LEAB 211900Z 34005KT 3000 RA BR SCT005 BKN009 BKN035 09/08 Q1008 NOSIG
Conditions at: LEAB (ALBACETE (CIV/MI, ES) observed 1900 UTC 21 April 2019
Temperature: 9.0°C (48°F)
Dewpoint: 8.0°C (46°F) [RH = 93%]
Pressure (altimeter): 29.76 inches Hg (1008.0 mb)
Winds: from the NNW (340 degrees) at 6 MPH (5 knots; 2.6 m/s)
Visibility: 1.86 miles (2.99 km)
Ceiling: 900 feet AGL
Clouds: scattered clouds at 500 feet AGL
broken clouds at 900 feet AGL
broken clouds at 3500 feet AGL
Weather: RA BR  (moderate rain, mist)

METAR text: LEAB 211800Z 36005KT 3000 RA BR SCT005 BKN009 09/09 Q1008 TEMPO 6000 NSW
Conditions at: LEAB (ALBACETE (CIV/MI, ES) observed 1800 UTC 21 April 2019
Temperature: 9.0°C (48°F)
Dewpoint: 9.0°C (48°F) [RH = 100%]
Pressure (altimeter): 29.76 inches Hg (1008.0 mb)
Winds: from the N (360 degrees) at 6 MPH (5 knots; 2.6 m/s)
Visibility: 1.86 miles (2.99 km)
Ceiling: 900 feet AGL
Clouds: scattered clouds at 500 feet AGL
broken clouds at 900 feet AGL
Weather: RA BR  (moderate rain, mist)

METAR text: LEAB 211719Z 34006KT 3000 RA BR FEW007 BKN009 OVC015 09/08 Q1008 NOSIG
Conditions at: LEAB (ALBACETE (CIV/MI, ES) observed 1719 UTC 21 April 2019
Temperature: 9.0°C (48°F)
Dewpoint: 8.0°C (46°F) [RH = 93%]
Pressure (altimeter): 29.76 inches Hg (1008.0 mb)
Winds: from the NNW (340 degrees) at 7 MPH (6 knots; 3.1 m/s)
Visibility: 1.86 miles (2.99 km)
Ceiling: 900 feet AGL
Clouds: few clouds at 700 feet AGL
broken clouds at 900 feet AGL
overcast cloud deck at 1500 feet AGL
Weather: RA BR  (moderate rain, mist)

METAR text: LEAB 211700Z 34005KT 4000 -RA BR SCT010 BKN015 09/08 Q1008 TEMPO RA BKN012
Conditions at: LEAB (ALBACETE (CIV/MI, ES) observed 1700 UTC 21 April 2019
Temperature: 9.0°C (48°F)
Dewpoint: 8.0°C (46°F) [RH = 93%]
Pressure (altimeter): 29.76 inches Hg (1008.0 mb)
Winds: from the NNW (340 degrees) at 6 MPH (5 knots; 2.6 m/s)
Visibility: 2.49 miles (4.01 km)
Ceiling: 1500 feet AGL
Clouds: scattered clouds at 1000 feet AGL
broken clouds at 1500 feet AGL
Weather: -RA BR  (light rain, mist)

METAR text: LEAB 211600Z 34006KT 8000 -RA FEW011 BKN015 09/08 Q1008 TEMPO 4000 RA BKN012
Conditions at: LEAB (ALBACETE (CIV/MI, ES) observed 1600 UTC 21 April 2019
Temperature: 9.0°C (48°F)
Dewpoint: 8.0°C (46°F) [RH = 93%]
Pressure (altimeter): 29.76 inches Hg (1008.0 mb)
Winds: from the NNW (340 degrees) at 7 MPH (6 knots; 3.1 m/s)
Visibility: 5 miles ( 8 km)
Ceiling: 1500 feet AGL
Clouds: few clouds at 1100 feet AGL
broken clouds at 1500 feet AGL
Weather: -RA  (light rain)

METAR text: LEAB 211500Z 01007KT 330V040 9999 -DZ FEW012 BKN018 BKN035 09/08 Q1008 TEMPO 4000 RA BKN012
Conditions at: LEAB (ALBACETE (CIV/MI, ES) observed 1500 UTC 21 April 2019
Temperature: 9.0°C (48°F)
Dewpoint: 8.0°C (46°F) [RH = 93%]
Pressure (altimeter): 29.76 inches Hg (1008.0 mb)
Winds: from the N (10 degrees) at 8 MPH (7 knots; 3.6 m/s)
Visibility: 6 or more miles (10+ km)
Ceiling: 1800 feet AGL
Clouds: few clouds at 1200 feet AGL
broken clouds at 1800 feet AGL
broken clouds at 3500 feet AGL
Weather: -DZ  (light drizzle)

METAR text: LEAB 211400Z 04007KT 9999 FEW009 BKN015 09/08 Q1009 TEMPO RA BKN012
Conditions at: LEAB (ALBACETE (CIV/MI, ES) observed 1400 UTC 21 April 2019
Temperature: 9.0°C (48°F)
Dewpoint: 8.0°C (46°F) [RH = 93%]
Pressure (altimeter): 29.79 inches Hg (1009.0 mb)
Winds: from the NE (40 degrees) at 8 MPH (7 knots; 3.6 m/s)
Visibility: 6 or more miles (10+ km)
Ceiling: 1500 feet AGL
Clouds: few clouds at 900 feet AGL
broken clouds at 1500 feet AGL
Weather: no significant weather observed at this time

METAR text: LEAB 211300Z 03009KT 9999 -RA BKN012 09/07 Q1009 TEMPO RA
Conditions at: LEAB (ALBACETE (CIV/MI, ES) observed 1300 UTC 21 April 2019
Temperature: 9.0°C (48°F)
Dewpoint: 7.0°C (45°F) [RH = 87%]
Pressure (altimeter): 29.79 inches Hg (1009.0 mb)
Winds: from the NNE (30 degrees) at 10 MPH (9 knots; 4.6 m/s)
Visibility: 6 or more miles (10+ km)
Ceiling: 1200 feet AGL
Clouds: broken clouds at 1200 feet AGL
Weather: -RA  (light rain)

METAR text: LEAB 211200Z 04008KT 9999 -RA BKN020 09/07 Q1010 TEMPO RA
Conditions at: LEAB (ALBACETE (CIV/MI, ES) observed 1200 UTC 21 April 2019
Temperature: 9.0°C (48°F)
Dewpoint: 7.0°C (45°F) [RH = 87%]
Pressure (altimeter): 29.82 inches Hg (1010.0 mb)
Winds: from the NE (40 degrees) at 9 MPH (8 knots; 4.1 m/s)
Visibility: 6 or more miles (10+ km)
Ceiling: 2000 feet AGL
Clouds: broken clouds at 2000 feet AGL
Weather: -RA  (light rain)

METAR text: LEAB 211100Z 04007KT 010V080 9999 BKN025 10/06 Q1010 TEMPO RA
Conditions at: LEAB (ALBACETE (CIV/MI, ES) observed 1100 UTC 21 April 2019
Temperature: 10.0°C (50°F)
Dewpoint: 6.0°C (43°F) [RH = 76%]
Pressure (altimeter): 29.82 inches Hg (1010.0 mb)
Winds: from the NE (40 degrees) at 8 MPH (7 knots; 3.6 m/s)
Visibility: 6 or more miles (10+ km)
Ceiling: 2500 feet AGL
Clouds: broken clouds at 2500 feet AGL
Weather: no significant weather observed at this time

METAR text: LEAB 211000Z 01004KT 9999 BKN025 OVC035 09/06 Q1011 NOSIG
Conditions at: LEAB (ALBACETE (CIV/MI, ES) observed 1000 UTC 21 April 2019
Temperature: 9.0°C (48°F)
Dewpoint: 6.0°C (43°F) [RH = 81%]
Pressure (altimeter): 29.85 inches Hg (1011.0 mb)
Winds: from the N (10 degrees) at 5 MPH (4 knots; 2.1 m/s)
Visibility: 6 or more miles (10+ km)
Ceiling: 2500 feet AGL
Clouds: broken clouds at 2500 feet AGL
overcast cloud deck at 3500 feet AGL
Weather: no significant weather observed at this time

METAR text: LEAB 210900Z 35005KT 9999 BKN025 09/06 Q1011 NOSIG
Conditions at: LEAB (ALBACETE (CIV/MI, ES) observed 0900 UTC 21 April 2019
Temperature: 9.0°C (48°F)
Dewpoint: 6.0°C (43°F) [RH = 81%]
Pressure (altimeter): 29.85 inches Hg (1011.0 mb)
Winds: from the N (350 degrees) at 6 MPH (5 knots; 2.6 m/s)
Visibility: 6 or more miles (10+ km)
Ceiling: 2500 feet AGL
Clouds: broken clouds at 2500 feet AGL
Weather: no significant weather observed at this time

METAR text: LEAB 210800Z 34005KT 9999 BKN020 BKN027 08/06 Q1011 NOSIG
Conditions at: LEAB (ALBACETE (CIV/MI, ES) observed 0800 UTC 21 April 2019
Temperature: 8.0°C (46°F)
Dewpoint: 6.0°C (43°F) [RH = 87%]
Pressure (altimeter): 29.85 inches Hg (1011.0 mb)
Winds: from the NNW (340 degrees) at 6 MPH (5 knots; 2.6 m/s)
Visibility: 6 or more miles (10+ km)
Ceiling: 2000 feet AGL
Clouds: broken clouds at 2000 feet AGL
broken clouds at 2700 feet AGL
Weather: no significant weather observed at this time

METAR text: LEAB 210700Z 36005KT 9999 BKN020 08/06 Q1011 NOSIG
Conditions at: LEAB (ALBACETE (CIV/MI, ES) observed 0700 UTC 21 April 2019
Temperature: 8.0°C (46°F)
Dewpoint: 6.0°C (43°F) [RH = 87%]
Pressure (altimeter): 29.85 inches Hg (1011.0 mb)
Winds: from the N (360 degrees) at 6 MPH (5 knots; 2.6 m/s)
Visibility: 6 or more miles (10+ km)
Ceiling: 2000 feet AGL
Clouds: broken clouds at 2000 feet AGL
Weather: no significant weather observed at this time

METAR text: LEAB 210600Z 33004KT 9999 BKN020 07/06 Q1011 NOSIG
Conditions at: LEAB (ALBACETE (CIV/MI, ES) observed 0600 UTC 21 April 2019
Temperature: 7.0°C (45°F)
Dewpoint: 6.0°C (43°F) [RH = 93%]
Pressure (altimeter): 29.85 inches Hg (1011.0 mb)
Winds: from the NNW (330 degrees) at 5 MPH (4 knots; 2.1 m/s)
Visibility: 6 or more miles (10+ km)
Ceiling: 2000 feet AGL
Clouds: broken clouds at 2000 feet AGL
Weather: no significant weather observed at this time

METAR text: LEAB 210500Z 01008KT 9999 BKN022 08/05 Q1011 NOSIG
Conditions at: LEAB (ALBACETE (CIV/MI, ES) observed 0500 UTC 21 April 2019
Temperature: 8.0°C (46°F)
Dewpoint: 5.0°C (41°F) [RH = 81%]
Pressure (altimeter): 29.85 inches Hg (1011.0 mb)
Winds: from the N (10 degrees) at 9 MPH (8 knots; 4.1 m/s)
Visibility: 6 or more miles (10+ km)
Ceiling: 2200 feet AGL
Clouds: broken clouds at 2200 feet AGL
Weather: no significant weather observed at this time

METAR text: LEAB 210400Z 03005KT 9999 BKN023 08/05 Q1012 NOSIG
Conditions at: LEAB (ALBACETE (CIV/MI, ES) observed 0400 UTC 21 April 2019
Temperature: 8.0°C (46°F)
Dewpoint: 5.0°C (41°F) [RH = 81%]
Pressure (altimeter): 29.88 inches Hg (1012.0 mb)
Winds: from the NNE (30 degrees) at 6 MPH (5 knots; 2.6 m/s)
Visibility: 6 or more miles (10+ km)
Ceiling: 2300 feet AGL
Clouds: broken clouds at 2300 feet AGL
Weather: no significant weather observed at this time

METAR text: LEAB 210300Z 02005KT 9999 BKN024 09/04 Q1012 NOSIG
Conditions at: LEAB (ALBACETE (CIV/MI, ES) observed 0300 UTC 21 April 2019
Temperature: 9.0°C (48°F)
Dewpoint: 4.0°C (39°F) [RH = 71%]
Pressure (altimeter): 29.88 inches Hg (1012.0 mb)
Winds: from the NNE (20 degrees) at 6 MPH (5 knots; 2.6 m/s)
Visibility: 6 or more miles (10+ km)
Ceiling: 2400 feet AGL
Clouds: broken clouds at 2400 feet AGL
Weather: no significant weather observed at this time

METAR text: LEAB 210200Z 35004KT 330V030 9999 BKN026 09/05 Q1013 NOSIG
Conditions at: LEAB (ALBACETE (CIV/MI, ES) observed 0200 UTC 21 April 2019
Temperature: 9.0°C (48°F)
Dewpoint: 5.0°C (41°F) [RH = 76%]
Pressure (altimeter): 29.91 inches Hg (1013.0 mb)
Winds: from the N (350 degrees) at 5 MPH (4 knots; 2.1 m/s)
Visibility: 6 or more miles (10+ km)
Ceiling: 2600 feet AGL
Clouds: broken clouds at 2600 feet AGL
Weather: no significant weather observed at this time

METAR text: LEAB 210100Z 01006KT 340V040 9999 BKN029 BKN048 09/05 Q1014 NOSIG
Conditions at: LEAB (ALBACETE (CIV/MI, ES) observed 0100 UTC 21 April 2019
Temperature: 9.0°C (48°F)
Dewpoint: 5.0°C (41°F) [RH = 76%]
Pressure (altimeter): 29.94 inches Hg (1014.0 mb)
Winds: from the N (10 degrees) at 7 MPH (6 knots; 3.1 m/s)
Visibility: 6 or more miles (10+ km)
Ceiling: 2900 feet AGL
Clouds: broken clouds at 2900 feet AGL
broken clouds at 4800 feet AGL
Weather: no significant weather observed at this time

METAR text: LEAB 210000Z 05011KT 9999 BKN036 BKN042 09/06 Q1015 NOSIG
Conditions at: LEAB (ALBACETE (CIV/MI, ES) observed 0000 UTC 21 April 2019
Temperature: 9.0°C (48°F)
Dewpoint: 6.0°C (43°F) [RH = 81%]
Pressure (altimeter): 29.97 inches Hg (1015.0 mb)
Winds: from the NE (50 degrees) at 13 MPH (11 knots; 5.7 m/s)
Visibility: 6 or more miles (10+ km)
Ceiling: 3600 feet AGL
Clouds: broken clouds at 3600 feet AGL
broken clouds at 4200 feet AGL
Weather: no significant weather observed at this time

METAR text: LEAB 202300Z 05011KT 9999 BKN024 BKN032 09/05 Q1015 NOSIG
Conditions at: LEAB (ALBACETE (CIV/MI, ES) observed 2300 UTC 20 April 2019
Temperature: 9.0°C (48°F)
Dewpoint: 5.0°C (41°F) [RH = 76%]
Pressure (altimeter): 29.97 inches Hg (1015.0 mb)
Winds: from the NE (50 degrees) at 13 MPH (11 knots; 5.7 m/s)
Visibility: 6 or more miles (10+ km)
Ceiling: 2400 feet AGL
Clouds: broken clouds at 2400 feet AGL
broken clouds at 3200 feet AGL
Weather: no significant weather observed at this time

METAR text: LEAB 202200Z 05011KT 9999 SCT029 09/05 Q1016 NOSIG
Conditions at: LEAB (ALBACETE (CIV/MI, ES) observed 2200 UTC 20 April 2019
Temperature: 9.0°C (48°F)
Dewpoint: 5.0°C (41°F) [RH = 76%]
Pressure (altimeter): 30.00 inches Hg (1016.0 mb)
Winds: from the NE (50 degrees) at 13 MPH (11 knots; 5.7 m/s)
Visibility: 6 or more miles (10+ km)
Ceiling: at least 12,000 feet AGL
Clouds: scattered clouds at 2900 feet AGL
Weather: no significant weather observed at this time

METAR text: LEAB 202100Z 05011KT 350V070 CAVOK 10/05 Q1016 NOSIG
Conditions at: LEAB (ALBACETE (CIV/MI, ES) observed 2100 UTC 20 April 2019
Temperature: 10.0°C (50°F)
Dewpoint: 5.0°C (41°F) [RH = 71%]
Pressure (altimeter): 30.00 inches Hg (1016.0 mb)
Winds: from the NE (50 degrees) at 13 MPH (11 knots; 5.7 m/s)
Visibility: 6 or more miles (10+ km)
Ceiling: ceiling and visibility are OK
Clouds: unknown
Weather: no significant weather observed at this time

METAR text: LEAB 202000Z 05012KT 020V080 9999 OVC038 10/05 Q1016 NOSIG
Conditions at: LEAB (ALBACETE (CIV/MI, ES) observed 2000 UTC 20 April 2019
Temperature: 10.0°C (50°F)
Dewpoint: 5.0°C (41°F) [RH = 71%]
Pressure (altimeter): 30.00 inches Hg (1016.0 mb)
Winds: from the NE (50 degrees) at 14 MPH (12 knots; 6.2 m/s)
Visibility: 6 or more miles (10+ km)
Ceiling: 3800 feet AGL
Clouds: overcast cloud deck at 3800 feet AGL
Weather: no significant weather observed at this time

METAR text: LEAB 201900Z 06015KT 9999 FEW043 10/05 Q1016 NOSIG
Conditions at: LEAB (ALBACETE (CIV/MI, ES) observed 1900 UTC 20 April 2019
Temperature: 10.0°C (50°F)
Dewpoint: 5.0°C (41°F) [RH = 71%]
Pressure (altimeter): 30.00 inches Hg (1016.0 mb)
Winds: from the ENE (60 degrees) at 17 MPH (15 knots; 7.7 m/s)
Visibility: 6 or more miles (10+ km)
Ceiling: at least 12,000 feet AGL
Clouds: few clouds at 4300 feet AGL
Weather: no significant weather observed at this time

METAR text: LEAB 201800Z 05009KT 9999 BKN031 BKN042 11/06 Q1015 NOSIG
Conditions at: LEAB (ALBACETE (CIV/MI, ES) observed 1800 UTC 20 April 2019
Temperature: 11.0°C (52°F)
Dewpoint: 6.0°C (43°F) [RH = 71%]
Pressure (altimeter): 29.97 inches Hg (1015.0 mb)
Winds: from the NE (50 degrees) at 10 MPH (9 knots; 4.6 m/s)
Visibility: 6 or more miles (10+ km)
Ceiling: 3100 feet AGL
Clouds: broken clouds at 3100 feet AGL
broken clouds at 4200 feet AGL
Weather: no significant weather observed at this time

METAR text: LEAB 201700Z 07015KT 9999 BKN029 BKN040 11/06 Q1016 NOSIG
Conditions at: LEAB (ALBACETE (CIV/MI, ES) observed 1700 UTC 20 April 2019
Temperature: 11.0°C (52°F)
Dewpoint: 6.0°C (43°F) [RH = 71%]
Pressure (altimeter): 30.00 inches Hg (1016.0 mb)
Winds: from the ENE (70 degrees) at 17 MPH (15 knots; 7.7 m/s)
Visibility: 6 or more miles (10+ km)
Ceiling: 2900 feet AGL
Clouds: broken clouds at 2900 feet AGL
broken clouds at 4000 feet AGL
Weather: no significant weather observed at this time

METAR text: LEAB 201600Z 07019KT 9999 FEW025 SCT030 11/06 Q1015 NOSIG
Conditions at: LEAB (ALBACETE (CIV/MI, ES) observed 1600 UTC 20 April 2019
Temperature: 11.0°C (52°F)
Dewpoint: 6.0°C (43°F) [RH = 71%]
Pressure (altimeter): 29.97 inches Hg (1015.0 mb)
Winds: from the ENE (70 degrees) at 22 MPH (19 knots; 9.8 m/s)
Visibility: 6 or more miles (10+ km)
Ceiling: at least 12,000 feet AGL
Clouds: few clouds at 2500 feet AGL
scattered clouds at 3000 feet AGL
Weather: no significant weather observed at this time

METAR text: LEAB 201500Z 06020KT 9999 -SHRA FEW032TCU BKN036 10/06 Q1015 NOSIG
Conditions at: LEAB (ALBACETE (CIV/MI, ES) observed 1500 UTC 20 April 2019
Temperature: 10.0°C (50°F)
Dewpoint: 6.0°C (43°F) [RH = 76%]
Pressure (altimeter): 29.97 inches Hg (1015.0 mb)
Winds: from the ENE (60 degrees) at 23 MPH (20 knots; 10.3 m/s)
Visibility: 6 or more miles (10+ km)
Ceiling: 3600 feet AGL
Clouds: few clouds at 3200 feet AGL
broken clouds at 3600 feet AGL
Weather: -SHRA  (light rain showers)

Forecast for: LEAB (ALBACETE (CIV/MI, ES)
Text: TAF LEAB 212300Z 2200/2209 31006KT 9999 BKN020
Forecast period: 0000 to 0900 UTC 22 April 2019
Forecast type: FROM: standard forecast or significant change
Winds: from the NW (310 degrees) at 7 MPH (6 knots; 3.1 m/s)
Visibility: 6 or more miles 10+ km)
Ceiling: 2000 feet AGL
Clouds: broken clouds at 2000 feet AGL
Weather: no significant weather forecast for this period
Text: TEMPO 2200/2207 RA BKN012
Forecast period: 0000 to 0700 UTC 22 April 2019
Forecast type: TEMPORARY: The following changes expected for less than half the time period
Visibility: missing
Ceiling: 1200 feet AGL
Clouds: broken clouds at 1200 feet AGL
Weather: RA  (moderate rain)
Text: PROB30
Forecast period: 0000 to 0700 UTC 22 April 2019
Forecast type: TEMPORARY: The following changes expected for less than half the time period
Visibility: 2.49 miles (4.01 km)
Ceiling: 800 feet AGL
Clouds: broken clouds at 800 feet AGL
Weather: DZ  (moderate drizzle)
Text: TEMPO 2200/2207 4000 DZ BKN008
Forecast period: 0700 to 0900 UTC 22 April 2019
Forecast type: TEMPORARY: The following changes expected for less than half the time period
Visibility: missing
Ceiling: unknown
Clouds: missing
Weather: RA  (moderate rain)